PWSweather.com
Personal Weather Stations
Station Observations
KVARICHM91
Near West End, Richmond, VA 23221

Near West EndRichmond, VA 23221

Lat: 37.567, Lon: -77.496

Elevation: 0

Station Type: Davis Vantage Pro2

Latest ConditionsUpdated 3:58:49 AM EDT Sunday, Apr 23, 2017
Currently Today's Max Today's Min Today's Average
Temperature 50.5°F10.3°C 51.4°F10.8°C 50.4°F10.2°C 51.0°F10.6°C
Dew Point 50.0°F10.0°C 50.5°F10.3°C 49.5°F9.7°C 50.1°F10.1°C
Winds 0.7 mph 1.1 kmh 1.8 mph NNE2.9 kmh NNE - 0.5 mph 0.8 kmh
Wind Gusts 1.1 mph1.8 kmh 5.4 mph8.7 kmh - -
Humidity 98% 98% 97% 97%
Pressure 30.05 in1017.6 mb 30.08 in1018.6 mb 30.03 in1016.9 mb -
Precipitation - 0.08 in2.0 mm - -
Hour Temp Dew Point Humidity Winds Wind Gusts Pressure Precip Precip Rate Daily Precip Total
03:58 AM 50.5°F10.3°C 50.0°F10.0°C 98% 0.7 mph 1.1 kmh 1.1 mph1.8 kmh 30.05 in1017.6 mb 0.02 in0.5 mm 0.00 in0.0 mm 0.08 in2.0 mm
03:57 AM 50.5°F10.3°C 50.0°F10.0°C 98% 0.4 mph 0.6 kmh 1.1 mph1.8 kmh 30.05 in1017.6 mb 0.02 in0.5 mm 0.00 in0.0 mm 0.08 in2.0 mm
03:56 AM 50.5°F10.3°C 49.6°F9.8°C 97% 0.2 mph 0.3 kmh 1.1 mph1.8 kmh 30.05 in1017.6 mb 0.03 in0.8 mm 0.00 in0.0 mm 0.08 in2.0 mm
03:55 AM 50.5°F10.3°C 49.6°F9.8°C 97% 0.4 mph 0.6 kmh 1.1 mph1.8 kmh 30.04 in1017.3 mb 0.03 in0.8 mm 0.00 in0.0 mm 0.08 in2.0 mm
03:54 AM 50.5°F10.3°C 49.6°F9.8°C 97% 0.2 mph 0.3 kmh 1.1 mph1.8 kmh 30.04 in1017.3 mb 0.03 in0.8 mm 0.00 in0.0 mm 0.08 in2.0 mm
03:53 AM 50.4°F10.2°C 49.5°F9.7°C 97% 0.2 mph NNW0.3 kmh NNW 1.1 mph1.8 kmh 30.04 in1017.3 mb 0.03 in0.8 mm 0.60 in15.2 mm 0.08 in2.0 mm
03:52 AM 50.5°F10.3°C 49.6°F9.8°C 97% Calm Calm -- 30.04 in1017.3 mb 0.02 in0.5 mm 0.00 in0.0 mm 0.07 in1.8 mm
03:51 AM 50.5°F10.3°C 49.6°F9.8°C 97% Calm Calm -- 30.04 in1017.3 mb 0.02 in0.5 mm 0.00 in0.0 mm 0.07 in1.8 mm
03:50 AM 50.5°F10.3°C 49.6°F9.8°C 97% Calm Calm -- 30.04 in1017.3 mb 0.02 in0.5 mm 0.00 in0.0 mm 0.07 in1.8 mm
03:49 AM 50.5°F10.3°C 49.6°F9.8°C 97% Calm Calm -- 30.03 in1016.9 mb 0.02 in0.5 mm 0.00 in0.0 mm 0.07 in1.8 mm
03:48 AM 50.5°F10.3°C 49.6°F9.8°C 97% Calm Calm -- 30.04 in1017.3 mb 0.02 in0.5 mm 0.00 in0.0 mm 0.07 in1.8 mm
03:47 AM 50.5°F10.3°C 49.6°F9.8°C 97% Calm Calm -- 30.03 in1016.9 mb 0.02 in0.5 mm 0.00 in0.0 mm 0.07 in1.8 mm
03:46 AM 50.5°F10.3°C 49.6°F9.8°C 97% 0.2 mph NNW0.3 kmh NNW 1.1 mph1.8 kmh 30.04 in1017.3 mb 0.02 in0.5 mm 0.00 in0.0 mm 0.07 in1.8 mm
03:45 AM 50.5°F10.3°C 49.6°F9.8°C 97% 0.4 mph NNW0.6 kmh NNW 1.1 mph1.8 kmh 30.03 in1016.9 mb 0.02 in0.5 mm 0.00 in0.0 mm 0.07 in1.8 mm
03:44 AM 50.5°F10.3°C 49.6°F9.8°C 97% 0.7 mph NNW1.1 kmh NNW 1.1 mph1.8 kmh 30.03 in1016.9 mb 0.02 in0.5 mm 0.00 in0.0 mm 0.07 in1.8 mm
03:43 AM 50.5°F10.3°C 49.6°F9.8°C 97% 0.7 mph NNW1.1 kmh NNW 1.1 mph1.8 kmh 30.04 in1017.3 mb 0.02 in0.5 mm 0.00 in0.0 mm 0.07 in1.8 mm
03:42 AM 50.5°F10.3°C 49.6°F9.8°C 97% 0.9 mph NNW1.4 kmh NNW 1.1 mph1.8 kmh 30.04 in1017.3 mb 0.02 in0.5 mm 0.00 in0.0 mm 0.07 in1.8 mm
03:41 AM 50.5°F10.3°C 49.6°F9.8°C 97% 0.9 mph NNW1.4 kmh NNW 1.1 mph1.8 kmh 30.03 in1016.9 mb 0.02 in0.5 mm 0.00 in0.0 mm 0.07 in1.8 mm
03:40 AM 50.5°F10.3°C 49.6°F9.8°C 97% 0.2 mph NNW0.3 kmh NNW 1.1 mph1.8 kmh 30.03 in1016.9 mb 0.02 in0.5 mm 0.00 in0.0 mm 0.07 in1.8 mm
03:39 AM 50.5°F10.3°C 49.6°F9.8°C 97% 0.2 mph NNW0.3 kmh NNW 1.1 mph1.8 kmh 30.04 in1017.3 mb 0.02 in0.5 mm 0.00 in0.0 mm 0.07 in1.8 mm
03:38 AM 50.5°F10.3°C 49.6°F9.8°C 97% 0.2 mph NNW0.3 kmh NNW 1.1 mph1.8 kmh 30.04 in1017.3 mb 0.02 in0.5 mm 0.00 in0.0 mm 0.07 in1.8 mm
03:37 AM 50.5°F10.3°C 49.6°F9.8°C 97% 0.4 mph NNW0.6 kmh NNW 1.1 mph1.8 kmh 30.04 in1017.3 mb 0.02 in0.5 mm 0.00 in0.0 mm 0.07 in1.8 mm
03:36 AM 50.5°F10.3°C 49.6°F9.8°C 97% 0.2 mph NNW0.3 kmh NNW 2.0 mph3.2 kmh 30.04 in1017.3 mb 0.02 in0.5 mm 0.00 in0.0 mm 0.07 in1.8 mm
03:35 AM 50.5°F10.3°C 49.6°F9.8°C 97% 0.2 mph NNW0.3 kmh NNW 2.0 mph3.2 kmh 30.04 in1017.3 mb 0.02 in0.5 mm 0.00 in0.0 mm 0.07 in1.8 mm
03:34 AM 50.5°F10.3°C 49.6°F9.8°C 97% Calm Calm -- 30.05 in1017.6 mb 0.02 in0.5 mm 0.00 in0.0 mm 0.07 in1.8 mm
03:33 AM 50.5°F10.3°C 49.6°F9.8°C 97% 0.2 mph W0.3 kmh W -- 30.05 in1017.6 mb 0.02 in0.5 mm 0.00 in0.0 mm 0.07 in1.8 mm
03:32 AM 50.5°F10.3°C 49.6°F9.8°C 97% 0.2 mph W0.3 kmh W 1.1 mph1.8 kmh 30.05 in1017.6 mb 0.02 in0.5 mm 0.00 in0.0 mm 0.07 in1.8 mm
03:31 AM 50.5°F10.3°C 49.6°F9.8°C 97% 0.2 mph W0.3 kmh W 1.1 mph1.8 kmh 30.04 in1017.3 mb 0.02 in0.5 mm 0.00 in0.0 mm 0.07 in1.8 mm
03:30 AM 50.5°F10.3°C 49.6°F9.8°C 97% 0.2 mph W0.3 kmh W 1.1 mph1.8 kmh 30.05 in1017.6 mb 0.02 in0.5 mm 0.00 in0.0 mm 0.07 in1.8 mm
03:29 AM 50.5°F10.3°C 49.6°F9.8°C 97% 0.7 mph W1.1 kmh W 1.1 mph1.8 kmh 30.04 in1017.3 mb 0.02 in0.5 mm 0.00 in0.0 mm 0.07 in1.8 mm
03:28 AM 50.5°F10.3°C 49.6°F9.8°C 97% 0.9 mph W1.4 kmh W 2.0 mph3.2 kmh 30.04 in1017.3 mb 0.02 in0.5 mm 0.00 in0.0 mm 0.07 in1.8 mm
03:27 AM 50.5°F10.3°C 49.6°F9.8°C 97% 0.4 mph W0.6 kmh W 2.0 mph3.2 kmh 30.04 in1017.3 mb 0.02 in0.5 mm 0.00 in0.0 mm 0.07 in1.8 mm
03:26 AM 50.5°F10.3°C 49.6°F9.8°C 97% 0.4 mph W0.6 kmh W -- 30.05 in1017.6 mb 0.02 in0.5 mm 0.00 in0.0 mm 0.07 in1.8 mm
03:25 AM 50.5°F10.3°C 49.6°F9.8°C 97% 0.7 mph W1.1 kmh W 2.0 mph3.2 kmh 30.05 in1017.6 mb 0.02 in0.5 mm 0.00 in0.0 mm 0.07 in1.8 mm
03:24 AM 50.5°F10.3°C 49.6°F9.8°C 97% 0.4 mph W0.6 kmh W 1.1 mph1.8 kmh 30.05 in1017.6 mb 0.02 in0.5 mm 0.00 in0.0 mm 0.07 in1.8 mm
03:23 AM 50.5°F10.3°C 49.6°F9.8°C 97% Calm Calm -- 30.05 in1017.6 mb 0.02 in0.5 mm 0.00 in0.0 mm 0.06 in1.5 mm
03:22 AM 50.5°F10.3°C 49.6°F9.8°C 97% 0.2 mph W0.3 kmh W 1.1 mph1.8 kmh 30.05 in1017.6 mb 0.02 in0.5 mm 0.00 in0.0 mm 0.06 in1.5 mm
03:21 AM 50.5°F10.3°C 49.6°F9.8°C 97% Calm Calm 1.1 mph1.8 kmh 30.05 in1017.6 mb 0.02 in0.5 mm 0.00 in0.0 mm 0.06 in1.5 mm
03:20 AM 50.5°F10.3°C 49.6°F9.8°C 97% 0.2 mph W0.3 kmh W 1.1 mph1.8 kmh 30.05 in1017.6 mb 0.02 in0.5 mm 0.00 in0.0 mm 0.06 in1.5 mm
03:19 AM 50.5°F10.3°C 49.6°F9.8°C 97% 0.7 mph W1.1 kmh W 1.1 mph1.8 kmh 30.05 in1017.6 mb 0.02 in0.5 mm 0.00 in0.0 mm 0.06 in1.5 mm
03:18 AM 50.5°F10.3°C 49.6°F9.8°C 97% 0.4 mph W0.6 kmh W 2.0 mph3.2 kmh 30.05 in1017.6 mb 0.02 in0.5 mm 0.00 in0.0 mm 0.06 in1.5 mm
03:17 AM 50.5°F10.3°C 49.6°F9.8°C 97% 0.2 mph W0.3 kmh W 2.0 mph3.2 kmh 30.05 in1017.6 mb 0.02 in0.5 mm 0.00 in0.0 mm 0.06 in1.5 mm
03:16 AM 50.5°F10.3°C 49.6°F9.8°C 97% 0.2 mph 0.3 kmh -- 30.05 in1017.6 mb 0.02 in0.5 mm 0.00 in0.0 mm 0.06 in1.5 mm
03:15 AM 50.5°F10.3°C 49.6°F9.8°C 97% 1.3 mph 2.1 kmh 3.1 mph5.0 kmh 30.05 in1017.6 mb 0.02 in0.5 mm 0.00 in0.0 mm 0.06 in1.5 mm
03:14 AM 50.5°F10.3°C 49.6°F9.8°C 97% 1.8 mph 2.9 kmh 3.1 mph5.0 kmh 30.05 in1017.6 mb 0.02 in0.5 mm 0.00 in0.0 mm 0.06 in1.5 mm
03:13 AM 50.5°F10.3°C 49.6°F9.8°C 97% 1.3 mph N2.1 kmh N 2.0 mph3.2 kmh 30.05 in1017.6 mb 0.02 in0.5 mm 0.00 in0.0 mm 0.06 in1.5 mm
03:12 AM 50.5°F10.3°C 49.6°F9.8°C 97% 0.9 mph N1.4 kmh N 2.0 mph3.2 kmh 30.05 in1017.6 mb 0.02 in0.5 mm 0.00 in0.0 mm 0.06 in1.5 mm
03:11 AM 50.7°F10.4°C 49.8°F9.9°C 97% 0.9 mph NNW1.4 kmh NNW 2.0 mph3.2 kmh 30.05 in1017.6 mb 0.02 in0.5 mm 0.00 in0.0 mm 0.06 in1.5 mm
03:10 AM 50.7°F10.4°C 49.8°F9.9°C 97% 0.7 mph NNW1.1 kmh NNW 3.1 mph5.0 kmh 30.05 in1017.6 mb 0.02 in0.5 mm 0.00 in0.0 mm 0.06 in1.5 mm
03:09 AM 50.7°F10.4°C 49.8°F9.9°C 97% 0.7 mph NNW1.1 kmh NNW 3.1 mph5.0 kmh 30.05 in1017.6 mb 0.02 in0.5 mm 0.00 in0.0 mm 0.06 in1.5 mm
03:08 AM 50.7°F10.4°C 49.8°F9.9°C 97% 0.2 mph NNW0.3 kmh NNW 1.1 mph1.8 kmh 30.04 in1017.3 mb 0.02 in0.5 mm 0.00 in0.0 mm 0.06 in1.5 mm
03:07 AM 50.7°F10.4°C 49.8°F9.9°C 97% 0.9 mph NNW1.4 kmh NNW 2.0 mph3.2 kmh 30.04 in1017.3 mb 0.02 in0.5 mm 0.00 in0.0 mm 0.06 in1.5 mm
03:06 AM 50.7°F10.4°C 49.8°F9.9°C 97% 1.1 mph NNW1.8 kmh NNW 2.0 mph3.2 kmh 30.04 in1017.3 mb 0.02 in0.5 mm 0.00 in0.0 mm 0.06 in1.5 mm
03:05 AM 50.7°F10.4°C 49.8°F9.9°C 97% 0.7 mph NNW1.1 kmh NNW 2.0 mph3.2 kmh 30.04 in1017.3 mb 0.02 in0.5 mm 0.00 in0.0 mm 0.06 in1.5 mm
03:04 AM 50.7°F10.4°C 49.8°F9.9°C 97% 0.4 mph NNW0.6 kmh NNW 1.1 mph1.8 kmh 30.04 in1017.3 mb 0.02 in0.5 mm 0.00 in0.0 mm 0.06 in1.5 mm
03:03 AM 50.7°F10.4°C 49.8°F9.9°C 97% 0.2 mph NNW0.3 kmh NNW 1.1 mph1.8 kmh 30.04 in1017.3 mb 0.02 in0.5 mm 0.00 in0.0 mm 0.06 in1.5 mm
03:02 AM 50.7°F10.4°C 49.8°F9.9°C 97% 0.2 mph NNW0.3 kmh NNW -- 30.05 in1017.6 mb 0.02 in0.5 mm 0.00 in0.0 mm 0.06 in1.5 mm
03:01 AM 50.7°F10.4°C 49.8°F9.9°C 97% 0.2 mph NNW0.3 kmh NNW 1.1 mph1.8 kmh 30.04 in1017.3 mb 0.02 in0.5 mm 0.00 in0.0 mm 0.06 in1.5 mm
03:00 AM 50.7°F10.4°C 49.8°F9.9°C 97% Calm Calm 1.1 mph1.8 kmh 30.05 in1017.6 mb 0.02 in0.5 mm 0.00 in0.0 mm 0.06 in1.5 mm
02:59 AM 50.7°F10.4°C 49.8°F9.9°C 97% 0.2 mph NNW0.3 kmh NNW -- 30.05 in1017.6 mb 0.02 in0.5 mm 0.00 in0.0 mm 0.06 in1.5 mm
02:58 AM 50.7°F10.4°C 49.8°F9.9°C 97% 0.7 mph NNW1.1 kmh NNW 2.0 mph3.2 kmh 30.05 in1017.6 mb 0.02 in0.5 mm 0.00 in0.0 mm 0.06 in1.5 mm
02:57 AM 50.7°F10.4°C 49.8°F9.9°C 97% 0.9 mph NNW1.4 kmh NNW 2.0 mph3.2 kmh 30.05 in1017.6 mb 0.02 in0.5 mm 0.60 in15.2 mm 0.06 in1.5 mm
02:56 AM 50.7°F10.4°C 49.8°F9.9°C 97% 0.4 mph NW0.6 kmh NW 2.0 mph3.2 kmh 30.04 in1017.3 mb 0.01 in0.3 mm 0.00 in0.0 mm 0.05 in1.3 mm
02:55 AM 50.7°F10.4°C 49.8°F9.9°C 97% 0.2 mph NW0.3 kmh NW 1.1 mph1.8 kmh 30.04 in1017.3 mb 0.01 in0.3 mm 0.00 in0.0 mm 0.05 in1.3 mm
02:54 AM 50.7°F10.4°C 49.8°F9.9°C 97% 0.7 mph NW1.1 kmh NW 1.1 mph1.8 kmh 30.05 in1017.6 mb 0.01 in0.3 mm 0.00 in0.0 mm 0.05 in1.3 mm
02:53 AM 50.7°F10.4°C 49.8°F9.9°C 97% 0.9 mph NW1.4 kmh NW 2.0 mph3.2 kmh 30.04 in1017.3 mb 0.02 in0.5 mm 0.00 in0.0 mm 0.05 in1.3 mm
02:52 AM 50.7°F10.4°C 49.8°F9.9°C 97% 1.1 mph 1.8 kmh 1.1 mph1.8 kmh 30.04 in1017.3 mb 0.02 in0.5 mm 0.00 in0.0 mm 0.05 in1.3 mm
02:51 AM 50.7°F10.4°C 49.8°F9.9°C 97% 1.1 mph 1.8 kmh 2.0 mph3.2 kmh 30.04 in1017.3 mb 0.02 in0.5 mm 0.00 in0.0 mm 0.05 in1.3 mm
02:50 AM 50.7°F10.4°C 49.8°F9.9°C 97% 0.4 mph 0.6 kmh 2.0 mph3.2 kmh 30.04 in1017.3 mb 0.02 in0.5 mm 0.00 in0.0 mm 0.05 in1.3 mm
02:49 AM 50.7°F10.4°C 49.8°F9.9°C 97% Calm Calm 1.1 mph1.8 kmh 30.04 in1017.3 mb 0.02 in0.5 mm 0.00 in0.0 mm 0.05 in1.3 mm
02:48 AM 50.7°F10.4°C 49.8°F9.9°C 97% 0.4 mph NE0.6 kmh NE -- 30.03 in1016.9 mb 0.02 in0.5 mm 0.00 in0.0 mm 0.05 in1.3 mm
02:47 AM 50.7°F10.4°C 49.8°F9.9°C 97% 0.7 mph NE1.1 kmh NE 2.0 mph3.2 kmh 30.03 in1016.9 mb 0.02 in0.5 mm 0.00 in0.0 mm 0.05 in1.3 mm
02:46 AM 50.7°F10.4°C 49.8°F9.9°C 97% 0.7 mph NE1.1 kmh NE 1.1 mph1.8 kmh 30.03 in1016.9 mb 0.02 in0.5 mm 0.00 in0.0 mm 0.05 in1.3 mm
02:45 AM 50.7°F10.4°C 49.8°F9.9°C 97% 0.4 mph NE0.6 kmh NE 1.1 mph1.8 kmh 30.03 in1016.9 mb 0.02 in0.5 mm 0.00 in0.0 mm 0.05 in1.3 mm
02:44 AM 50.7°F10.4°C 49.8°F9.9°C 97% 0.2 mph NE0.3 kmh NE 1.1 mph1.8 kmh 30.04 in1017.3 mb 0.02 in0.5 mm 0.00 in0.0 mm 0.05 in1.3 mm
02:43 AM 50.7°F10.4°C 49.8°F9.9°C 97% 0.2 mph NE0.3 kmh NE 1.1 mph1.8 kmh 30.04 in1017.3 mb 0.02 in0.5 mm 0.00 in0.0 mm 0.05 in1.3 mm
02:42 AM 50.9°F10.5°C 50.0°F10.0°C 97% 0.2 mph NE0.3 kmh NE 1.1 mph1.8 kmh 30.04 in1017.3 mb 0.02 in0.5 mm 0.00 in0.0 mm 0.05 in1.3 mm
02:41 AM 50.9°F10.5°C 50.0°F10.0°C 97% 0.2 mph NE0.3 kmh NE -- 30.04 in1017.3 mb 0.02 in0.5 mm 0.00 in0.0 mm 0.05 in1.3 mm
02:40 AM 50.9°F10.5°C 50.0°F10.0°C 97% 0.4 mph NE0.6 kmh NE 1.1 mph1.8 kmh 30.05 in1017.6 mb 0.02 in0.5 mm 0.00 in0.0 mm 0.05 in1.3 mm
02:39 AM 50.9°F10.5°C 50.0°F10.0°C 97% 0.7 mph N1.1 kmh N 1.1 mph1.8 kmh 30.04 in1017.3 mb 0.02 in0.5 mm 0.00 in0.0 mm 0.05 in1.3 mm
02:38 AM 50.9°F10.5°C 50.0°F10.0°C 97% 1.1 mph N1.8 kmh N 2.0 mph3.2 kmh 30.04 in1017.3 mb 0.02 in0.5 mm 0.00 in0.0 mm 0.05 in1.3 mm
02:37 AM 51.1°F10.6°C 50.2°F10.1°C 97% 1.1 mph N1.8 kmh N 2.0 mph3.2 kmh 30.04 in1017.3 mb 0.02 in0.5 mm 0.00 in0.0 mm 0.05 in1.3 mm
02:36 AM 51.1°F10.6°C 50.2°F10.1°C 97% 0.4 mph NW0.6 kmh NW 1.1 mph1.8 kmh 30.05 in1017.6 mb 0.02 in0.5 mm 0.00 in0.0 mm 0.05 in1.3 mm
02:35 AM 51.1°F10.6°C 50.2°F10.1°C 97% 0.7 mph NW1.1 kmh NW 1.1 mph1.8 kmh 30.05 in1017.6 mb 0.02 in0.5 mm 0.00 in0.0 mm 0.05 in1.3 mm
02:34 AM 51.1°F10.6°C 50.2°F10.1°C 97% 0.9 mph NW1.4 kmh NW 3.1 mph5.0 kmh 30.05 in1017.6 mb 0.02 in0.5 mm 0.00 in0.0 mm 0.05 in1.3 mm
02:33 AM 51.1°F10.6°C 50.2°F10.1°C 97% Calm Calm -- 30.04 in1017.3 mb 0.02 in0.5 mm 0.00 in0.0 mm 0.05 in1.3 mm
02:32 AM 51.1°F10.6°C 50.2°F10.1°C 97% Calm Calm 1.1 mph1.8 kmh 30.04 in1017.3 mb 0.02 in0.5 mm 0.00 in0.0 mm 0.05 in1.3 mm
02:31 AM 51.1°F10.6°C 50.2°F10.1°C 97% 0.4 mph 0.6 kmh 1.1 mph1.8 kmh 30.05 in1017.6 mb 0.02 in0.5 mm 0.00 in0.0 mm 0.05 in1.3 mm
02:30 AM 51.1°F10.6°C 50.2°F10.1°C 97% 0.9 mph 1.4 kmh 2.0 mph3.2 kmh 30.04 in1017.3 mb 0.02 in0.5 mm 0.00 in0.0 mm 0.05 in1.3 mm
02:29 AM 51.1°F10.6°C 50.2°F10.1°C 97% 0.9 mph 1.4 kmh 2.0 mph3.2 kmh 30.05 in1017.6 mb 0.02 in0.5 mm 0.00 in0.0 mm 0.05 in1.3 mm
02:28 AM 51.1°F10.6°C 50.2°F10.1°C 97% 0.7 mph N1.1 kmh N 2.0 mph3.2 kmh 30.05 in1017.6 mb 0.02 in0.5 mm 0.00 in0.0 mm 0.05 in1.3 mm
02:27 AM 51.1°F10.6°C 50.2°F10.1°C 97% 0.2 mph N0.3 kmh N 1.1 mph1.8 kmh 30.05 in1017.6 mb 0.02 in0.5 mm 0.00 in0.0 mm 0.05 in1.3 mm
02:26 AM 51.1°F10.6°C 50.2°F10.1°C 97% Calm Calm -- 30.05 in1017.6 mb 0.02 in0.5 mm 0.00 in0.0 mm 0.05 in1.3 mm
02:25 AM 51.1°F10.6°C 50.2°F10.1°C 97% 0.4 mph N0.6 kmh N 1.1 mph1.8 kmh 30.05 in1017.6 mb 0.02 in0.5 mm 0.00 in0.0 mm 0.05 in1.3 mm
02:24 AM 51.1°F10.6°C 50.2°F10.1°C 97% 0.4 mph N0.6 kmh N 2.0 mph3.2 kmh 30.05 in1017.6 mb 0.02 in0.5 mm 0.60 in15.2 mm 0.05 in1.3 mm
02:23 AM 51.1°F10.6°C 50.2°F10.1°C 97% 0.2 mph N0.3 kmh N 1.1 mph1.8 kmh 30.05 in1017.6 mb 0.01 in0.3 mm 0.00 in0.0 mm 0.04 in1.0 mm
02:22 AM 51.1°F10.6°C 50.2°F10.1°C 97% 0.2 mph N0.3 kmh N 1.1 mph1.8 kmh 30.05 in1017.6 mb 0.01 in0.3 mm 0.00 in0.0 mm 0.04 in1.0 mm
02:21 AM 51.1°F10.6°C 50.2°F10.1°C 97% Calm Calm 1.1 mph1.8 kmh 30.05 in1017.6 mb 0.02 in0.5 mm 0.00 in0.0 mm 0.04 in1.0 mm
02:20 AM 51.1°F10.6°C 50.2°F10.1°C 97% 0.2 mph N0.3 kmh N -- 30.05 in1017.6 mb 0.02 in0.5 mm 0.00 in0.0 mm 0.04 in1.0 mm
02:19 AM 51.1°F10.6°C 50.2°F10.1°C 97% 0.2 mph N0.3 kmh N 1.1 mph1.8 kmh 30.05 in1017.6 mb 0.02 in0.5 mm 0.00 in0.0 mm 0.04 in1.0 mm
02:18 AM 51.1°F10.6°C 50.2°F10.1°C 97% Calm Calm -- 30.05 in1017.6 mb 0.02 in0.5 mm 0.00 in0.0 mm 0.04 in1.0 mm
02:17 AM 51.1°F10.6°C 50.2°F10.1°C 97% 0.2 mph N0.3 kmh N 1.1 mph1.8 kmh 30.06 in1017.9 mb 0.02 in0.5 mm 0.00 in0.0 mm 0.04 in1.0 mm
02:16 AM 51.1°F10.6°C 50.2°F10.1°C 97% 0.7 mph N1.1 kmh N 1.1 mph1.8 kmh 30.06 in1017.9 mb 0.02 in0.5 mm 0.00 in0.0 mm 0.04 in1.0 mm
02:15 AM 51.1°F10.6°C 50.2°F10.1°C 97% 0.4 mph N0.6 kmh N 1.1 mph1.8 kmh 30.06 in1017.9 mb 0.02 in0.5 mm 0.00 in0.0 mm 0.04 in1.0 mm
02:14 AM 51.1°F10.6°C 50.2°F10.1°C 97% 0.2 mph N0.3 kmh N 1.1 mph1.8 kmh 30.06 in1017.9 mb 0.02 in0.5 mm 0.00 in0.0 mm 0.04 in1.0 mm
02:13 AM 51.1°F10.6°C 50.2°F10.1°C 97% Calm Calm 1.1 mph1.8 kmh 30.06 in1017.9 mb 0.02 in0.5 mm 0.00 in0.0 mm 0.04 in1.0 mm
02:12 AM 51.3°F10.7°C 50.4°F10.2°C 97% Calm Calm -- 30.06 in1017.9 mb 0.02 in0.5 mm 0.00 in0.0 mm 0.04 in1.0 mm
02:11 AM 51.3°F10.7°C 50.4°F10.2°C 97% Calm Calm -- 30.06 in1017.9 mb 0.02 in0.5 mm 0.00 in0.0 mm 0.04 in1.0 mm
02:10 AM 51.3°F10.7°C 50.4°F10.2°C 97% 0.2 mph 0.3 kmh -- 30.06 in1017.9 mb 0.02 in0.5 mm 0.00 in0.0 mm 0.04 in1.0 mm
02:09 AM 51.3°F10.7°C 50.4°F10.2°C 97% 0.4 mph 0.6 kmh 1.1 mph1.8 kmh 30.06 in1017.9 mb 0.02 in0.5 mm 0.00 in0.0 mm 0.04 in1.0 mm
02:08 AM 51.3°F10.7°C 50.4°F10.2°C 97% 0.7 mph 1.1 kmh 1.1 mph1.8 kmh 30.06 in1017.9 mb 0.02 in0.5 mm 0.00 in0.0 mm 0.04 in1.0 mm
02:07 AM 51.3°F10.7°C 50.4°F10.2°C 97% 0.9 mph 1.4 kmh 1.1 mph1.8 kmh 30.06 in1017.9 mb 0.02 in0.5 mm 0.00 in0.0 mm 0.04 in1.0 mm
02:06 AM 51.3°F10.7°C 50.4°F10.2°C 97% 0.9 mph 1.4 kmh 2.0 mph3.2 kmh 30.06 in1017.9 mb 0.02 in0.5 mm 0.00 in0.0 mm 0.04 in1.0 mm
02:05 AM 51.3°F10.7°C 50.4°F10.2°C 97% 0.7 mph 1.1 kmh 1.1 mph1.8 kmh 30.06 in1017.9 mb 0.02 in0.5 mm 0.00 in0.0 mm 0.04 in1.0 mm
02:04 AM 51.3°F10.7°C 50.4°F10.2°C 97% 0.2 mph 0.3 kmh 1.1 mph1.8 kmh 30.06 in1017.9 mb 0.02 in0.5 mm 0.00 in0.0 mm 0.04 in1.0 mm
02:03 AM 51.3°F10.7°C 50.4°F10.2°C 97% Calm Calm -- 30.07 in1018.3 mb 0.02 in0.5 mm 0.00 in0.0 mm 0.04 in1.0 mm
02:02 AM 51.3°F10.7°C 50.4°F10.2°C 97% Calm Calm -- 30.06 in1017.9 mb 0.02 in0.5 mm 0.00 in0.0 mm 0.04 in1.0 mm
02:01 AM 51.3°F10.7°C 50.4°F10.2°C 97% Calm Calm -- 30.06 in1017.9 mb 0.02 in0.5 mm 0.00 in0.0 mm 0.04 in1.0 mm
02:00 AM 51.3°F10.7°C 50.4°F10.2°C 97% Calm Calm -- 30.06 in1017.9 mb 0.02 in0.5 mm 0.00 in0.0 mm 0.04 in1.0 mm
01:59 AM 51.3°F10.7°C 50.4°F10.2°C 97% 0.2 mph 0.3 kmh 1.1 mph1.8 kmh 30.06 in1017.9 mb 0.02 in0.5 mm 0.00 in0.0 mm 0.04 in1.0 mm
01:58 AM 51.3°F10.7°C 50.4°F10.2°C 97% 0.2 mph 0.3 kmh 1.1 mph1.8 kmh 30.06 in1017.9 mb 0.02 in0.5 mm 0.00 in0.0 mm 0.04 in1.0 mm
01:57 AM 51.3°F10.7°C 50.4°F10.2°C 97% Calm Calm -- 30.06 in1017.9 mb 0.02 in0.5 mm 0.00 in0.0 mm 0.04 in1.0 mm
01:56 AM 51.3°F10.7°C 50.4°F10.2°C 97% Calm Calm -- 30.07 in1018.3 mb 0.02 in0.5 mm 0.00 in0.0 mm 0.04 in1.0 mm
01:55 AM 51.3°F10.7°C 50.4°F10.2°C 97% Calm Calm 1.1 mph1.8 kmh 30.07 in1018.3 mb 0.03 in0.8 mm 0.00 in0.0 mm 0.04 in1.0 mm
01:54 AM 51.3°F10.7°C 50.4°F10.2°C 97% Calm Calm 1.1 mph1.8 kmh 30.07 in1018.3 mb 0.03 in0.8 mm 0.60 in15.2 mm 0.04 in1.0 mm
01:53 AM 51.3°F10.7°C 50.4°F10.2°C 97% Calm Calm -- 30.06 in1017.9 mb 0.02 in0.5 mm 0.00 in0.0 mm 0.03 in0.8 mm
01:52 AM 51.3°F10.7°C 50.4°F10.2°C 97% Calm Calm -- 30.06 in1017.9 mb 0.02 in0.5 mm 0.00 in0.0 mm 0.03 in0.8 mm
01:51 AM 51.3°F10.7°C 50.4°F10.2°C 97% Calm Calm -- 30.06 in1017.9 mb 0.02 in0.5 mm 0.00 in0.0 mm 0.03 in0.8 mm
01:50 AM 51.3°F10.7°C 50.4°F10.2°C 97% Calm Calm -- 30.06 in1017.9 mb 0.02 in0.5 mm 0.00 in0.0 mm 0.03 in0.8 mm
01:49 AM 51.3°F10.7°C 50.4°F10.2°C 97% Calm Calm -- 30.06 in1017.9 mb 0.02 in0.5 mm 0.00 in0.0 mm 0.03 in0.8 mm
01:48 AM 51.3°F10.7°C 50.4°F10.2°C 97% Calm Calm -- 30.06 in1017.9 mb 0.02 in0.5 mm 0.00 in0.0 mm 0.03 in0.8 mm
01:47 AM 51.1°F10.6°C 50.2°F10.1°C 97% Calm Calm -- 30.06 in1017.9 mb 0.02 in0.5 mm 0.00 in0.0 mm 0.03 in0.8 mm
01:46 AM 51.1°F10.6°C 50.2°F10.1°C 97% Calm Calm -- 30.06 in1017.9 mb 0.02 in0.5 mm 0.00 in0.0 mm 0.03 in0.8 mm
01:45 AM 51.1°F10.6°C 50.2°F10.1°C 97% Calm Calm -- 30.06 in1017.9 mb 0.02 in0.5 mm 0.00 in0.0 mm 0.03 in0.8 mm
01:44 AM 51.1°F10.6°C 50.2°F10.1°C 97% Calm Calm 1.1 mph1.8 kmh 30.06 in1017.9 mb 0.02 in0.5 mm 0.00 in0.0 mm 0.03 in0.8 mm
01:43 AM 51.1°F10.6°C 50.2°F10.1°C 97% Calm Calm -- 30.06 in1017.9 mb 0.02 in0.5 mm 0.00 in0.0 mm 0.03 in0.8 mm
01:42 AM 51.1°F10.6°C 50.2°F10.1°C 97% Calm Calm -- 30.06 in1017.9 mb 0.02 in0.5 mm 0.00 in0.0 mm 0.03 in0.8 mm
01:41 AM 51.1°F10.6°C 50.2°F10.1°C 97% Calm Calm -- 30.06 in1017.9 mb 0.02 in0.5 mm 0.00 in0.0 mm 0.03 in0.8 mm
01:40 AM 51.3°F10.7°C 50.4°F10.2°C 97% 0.4 mph 0.6 kmh -- 30.06 in1017.9 mb 0.02 in0.5 mm 0.00 in0.0 mm 0.03 in0.8 mm
01:39 AM 51.3°F10.7°C 50.4°F10.2°C 97% 0.7 mph 1.1 kmh 1.1 mph1.8 kmh 30.06 in1017.9 mb 0.02 in0.5 mm 0.00 in0.0 mm 0.03 in0.8 mm
01:38 AM 51.3°F10.7°C 50.4°F10.2°C 97% 0.4 mph 0.6 kmh 1.1 mph1.8 kmh 30.06 in1017.9 mb 0.02 in0.5 mm 0.00 in0.0 mm 0.03 in0.8 mm
01:37 AM 51.3°F10.7°C 50.4°F10.2°C 97% Calm Calm 1.1 mph1.8 kmh 30.06 in1017.9 mb 0.02 in0.5 mm 0.00 in0.0 mm 0.03 in0.8 mm
01:36 AM 51.3°F10.7°C 50.4°F10.2°C 97% Calm Calm -- 30.06 in1017.9 mb 0.02 in0.5 mm 0.00 in0.0 mm 0.03 in0.8 mm
01:35 AM 51.3°F10.7°C 50.4°F10.2°C 97% Calm Calm -- 30.06 in1017.9 mb 0.02 in0.5 mm 0.00 in0.0 mm 0.03 in0.8 mm
01:34 AM 51.1°F10.6°C 50.2°F10.1°C 97% Calm Calm -- 30.06 in1017.9 mb 0.02 in0.5 mm 0.00 in0.0 mm 0.03 in0.8 mm
01:33 AM 51.1°F10.6°C 50.2°F10.1°C 97% Calm Calm -- 30.06 in1017.9 mb 0.02 in0.5 mm 0.00 in0.0 mm 0.03 in0.8 mm
01:32 AM 51.3°F10.7°C 50.4°F10.2°C 97% Calm Calm -- 30.07 in1018.3 mb 0.02 in0.5 mm 0.00 in0.0 mm 0.03 in0.8 mm
01:31 AM 51.1°F10.6°C 50.2°F10.1°C 97% Calm Calm -- 30.08 in1018.6 mb 0.02 in0.5 mm 0.00 in0.0 mm 0.03 in0.8 mm
01:30 AM 51.1°F10.6°C 50.2°F10.1°C 97% Calm Calm -- 30.08 in1018.6 mb 0.02 in0.5 mm 0.00 in0.0 mm 0.03 in0.8 mm
01:29 AM 51.1°F10.6°C 50.2°F10.1°C 97% Calm Calm -- 30.08 in1018.6 mb 0.02 in0.5 mm 0.00 in0.0 mm 0.03 in0.8 mm
01:28 AM 51.1°F10.6°C 50.2°F10.1°C 97% 0.2 mph 0.3 kmh 1.1 mph1.8 kmh 30.07 in1018.3 mb 0.02 in0.5 mm 0.00 in0.0 mm 0.03 in0.8 mm
01:27 AM 51.1°F10.6°C 50.2°F10.1°C 97% 0.2 mph 0.3 kmh 1.1 mph1.8 kmh 30.07 in1018.3 mb 0.02 in0.5 mm 0.00 in0.0 mm 0.03 in0.8 mm
01:26 AM 51.1°F10.6°C 50.2°F10.1°C 97% Calm Calm 1.1 mph1.8 kmh 30.08 in1018.6 mb 0.02 in0.5 mm 0.00 in0.0 mm 0.03 in0.8 mm
01:25 AM 51.1°F10.6°C 50.2°F10.1°C 97% Calm Calm -- 30.08 in1018.6 mb 0.02 in0.5 mm 0.00 in0.0 mm 0.03 in0.8 mm
01:24 AM 51.1°F10.6°C 50.2°F10.1°C 97% Calm Calm -- 30.08 in1018.6 mb 0.03 in0.8 mm 0.00 in0.0 mm 0.03 in0.8 mm
01:23 AM 51.1°F10.6°C 50.2°F10.1°C 97% 0.2 mph 0.3 kmh -- 30.08 in1018.6 mb 0.03 in0.8 mm 0.00 in0.0 mm 0.03 in0.8 mm
01:22 AM 51.1°F10.6°C 50.2°F10.1°C 97% 0.2 mph 0.3 kmh 1.1 mph1.8 kmh 30.07 in1018.3 mb 0.03 in0.8 mm 0.60 in15.2 mm 0.03 in0.8 mm
01:21 AM 51.1°F10.6°C 50.2°F10.1°C 97% 0.4 mph 0.6 kmh 1.1 mph1.8 kmh 30.07 in1018.3 mb 0.02 in0.5 mm 0.00 in0.0 mm 0.02 in0.5 mm
01:20 AM 51.1°F10.6°C 50.2°F10.1°C 97% 0.4 mph 0.6 kmh 1.1 mph1.8 kmh 30.08 in1018.6 mb 0.02 in0.5 mm 0.00 in0.0 mm 0.02 in0.5 mm
01:19 AM 51.1°F10.6°C 50.2°F10.1°C 97% 0.2 mph 0.3 kmh 1.1 mph1.8 kmh 30.08 in1018.6 mb 0.02 in0.5 mm 0.00 in0.0 mm 0.02 in0.5 mm
01:18 AM 51.1°F10.6°C 50.2°F10.1°C 97% 0.2 mph 0.3 kmh -- 30.08 in1018.6 mb 0.02 in0.5 mm 0.00 in0.0 mm 0.02 in0.5 mm
01:17 AM 51.1°F10.6°C 50.2°F10.1°C 97% 0.2 mph 0.3 kmh 1.1 mph1.8 kmh 30.07 in1018.3 mb 0.02 in0.5 mm 0.00 in0.0 mm 0.02 in0.5 mm
01:16 AM 51.1°F10.6°C 50.2°F10.1°C 97% 0.2 mph 0.3 kmh 1.1 mph1.8 kmh 30.07 in1018.3 mb 0.02 in0.5 mm 0.00 in0.0 mm 0.02 in0.5 mm
01:15 AM 51.1°F10.6°C 50.2°F10.1°C 97% Calm Calm -- 30.07 in1018.3 mb 0.02 in0.5 mm 0.00 in0.0 mm 0.02 in0.5 mm
01:14 AM 51.1°F10.6°C 50.2°F10.1°C 97% Calm Calm -- 30.07 in1018.3 mb 0.02 in0.5 mm 0.00 in0.0 mm 0.02 in0.5 mm
01:13 AM 51.1°F10.6°C 50.2°F10.1°C 97% 0.2 mph 0.3 kmh -- 30.06 in1017.9 mb 0.02 in0.5 mm 0.00 in0.0 mm 0.02 in0.5 mm
01:12 AM 51.1°F10.6°C 50.2°F10.1°C 97% 0.2 mph 0.3 kmh 1.1 mph1.8 kmh 30.06 in1017.9 mb 0.02 in0.5 mm 0.00 in0.0 mm 0.02 in0.5 mm
01:11 AM 51.1°F10.6°C 50.2°F10.1°C 97% 0.4 mph 0.6 kmh 1.1 mph1.8 kmh 30.07 in1018.3 mb 0.02 in0.5 mm 0.00 in0.0 mm 0.02 in0.5 mm
01:10 AM 51.1°F10.6°C 50.2°F10.1°C 97% 0.9 mph 1.4 kmh 1.1 mph1.8 kmh 30.06 in1017.9 mb 0.02 in0.5 mm 0.00 in0.0 mm 0.02 in0.5 mm
01:09 AM 51.1°F10.6°C 50.2°F10.1°C 97% 1.3 mph 2.1 kmh 3.1 mph5.0 kmh 30.06 in1017.9 mb 0.02 in0.5 mm 0.00 in0.0 mm 0.02 in0.5 mm
01:08 AM 51.1°F10.6°C 50.2°F10.1°C 97% 0.7 mph NW1.1 kmh NW 2.0 mph3.2 kmh 30.06 in1017.9 mb 0.02 in0.5 mm 0.00 in0.0 mm 0.02 in0.5 mm
01:07 AM 51.1°F10.6°C 50.2°F10.1°C 97% 0.9 mph NW1.4 kmh NW 1.1 mph1.8 kmh 30.06 in1017.9 mb 0.02 in0.5 mm 0.00 in0.0 mm 0.02 in0.5 mm
01:06 AM 51.1°F10.6°C 50.2°F10.1°C 97% 0.7 mph NW1.1 kmh NW 2.0 mph3.2 kmh 30.06 in1017.9 mb 0.02 in0.5 mm 0.00 in0.0 mm 0.02 in0.5 mm
01:05 AM 51.1°F10.6°C 50.2°F10.1°C 97% Calm Calm -- 30.06 in1017.9 mb 0.02 in0.5 mm 0.00 in0.0 mm 0.02 in0.5 mm
01:04 AM 51.1°F10.6°C 50.2°F10.1°C 97% 0.4 mph NW0.6 kmh NW -- 30.06 in1017.9 mb 0.02 in0.5 mm 0.00 in0.0 mm 0.02 in0.5 mm
01:03 AM 51.1°F10.6°C 50.2°F10.1°C 97% 0.7 mph NW1.1 kmh NW 2.0 mph3.2 kmh 30.06 in1017.9 mb 0.02 in0.5 mm 0.00 in0.0 mm 0.02 in0.5 mm
01:02 AM 51.1°F10.6°C 50.2°F10.1°C 97% 0.7 mph NW1.1 kmh NW 1.1 mph1.8 kmh 30.06 in1017.9 mb 0.02 in0.5 mm 0.00 in0.0 mm 0.02 in0.5 mm
01:01 AM 51.1°F10.6°C 50.2°F10.1°C 97% 0.9 mph NW1.4 kmh NW 1.1 mph1.8 kmh 30.06 in1017.9 mb 0.02 in0.5 mm 0.00 in0.0 mm 0.02 in0.5 mm
01:00 AM 51.1°F10.6°C 50.2°F10.1°C 97% 1.3 mph NW2.1 kmh NW 2.0 mph3.2 kmh 30.05 in1017.6 mb 0.02 in0.5 mm 0.00 in0.0 mm 0.02 in0.5 mm
12:59 AM 51.1°F10.6°C 50.2°F10.1°C 97% 1.1 mph WNW1.8 kmh WNW 3.1 mph5.0 kmh 30.05 in1017.6 mb 0.02 in0.5 mm 0.00 in0.0 mm 0.02 in0.5 mm
12:58 AM 51.1°F10.6°C 50.2°F10.1°C 97% 0.7 mph NE1.1 kmh NE 2.0 mph3.2 kmh 30.05 in1017.6 mb 0.02 in0.5 mm 0.00 in0.0 mm 0.02 in0.5 mm
12:57 AM 51.1°F10.6°C 50.2°F10.1°C 97% 1.3 mph NE2.1 kmh NE 2.0 mph3.2 kmh 30.05 in1017.6 mb 0.02 in0.5 mm 0.00 in0.0 mm 0.02 in0.5 mm
12:56 AM 51.1°F10.6°C 50.2°F10.1°C 97% 1.3 mph NE2.1 kmh NE 5.4 mph8.7 kmh 30.04 in1017.3 mb 0.03 in0.8 mm 0.60 in15.2 mm 0.02 in0.5 mm
12:55 AM 51.1°F10.6°C 50.2°F10.1°C 97% 1.1 mph ENE1.8 kmh ENE 5.4 mph8.7 kmh 30.04 in1017.3 mb 0.02 in0.5 mm 0.00 in0.0 mm 0.02 in0.5 mm
12:54 AM 51.1°F10.6°C 50.2°F10.1°C 97% 0.9 mph ENE1.4 kmh ENE 2.0 mph3.2 kmh 30.04 in1017.3 mb 0.02 in0.5 mm 0.00 in0.0 mm 0.01 in0.3 mm
12:53 AM 51.1°F10.6°C 50.2°F10.1°C 97% 1.1 mph ENE1.8 kmh ENE 3.1 mph5.0 kmh 30.04 in1017.3 mb 0.02 in0.5 mm 0.00 in0.0 mm 0.01 in0.3 mm
12:52 AM 51.1°F10.6°C 50.2°F10.1°C 97% 0.9 mph NNE1.4 kmh NNE 3.1 mph5.0 kmh 30.04 in1017.3 mb 0.02 in0.5 mm 0.00 in0.0 mm 0.01 in0.3 mm
12:51 AM 51.1°F10.6°C 50.2°F10.1°C 97% 0.9 mph ENE1.4 kmh ENE 2.0 mph3.2 kmh 30.04 in1017.3 mb 0.02 in0.5 mm 0.00 in0.0 mm 0.01 in0.3 mm
12:50 AM 51.1°F10.6°C 50.2°F10.1°C 97% 1.1 mph ENE1.8 kmh ENE 2.0 mph3.2 kmh 30.04 in1017.3 mb 0.02 in0.5 mm 0.00 in0.0 mm 0.01 in0.3 mm
12:49 AM 51.1°F10.6°C 50.2°F10.1°C 97% 1.1 mph NE1.8 kmh NE 2.0 mph3.2 kmh 30.04 in1017.3 mb 0.02 in0.5 mm 0.00 in0.0 mm 0.01 in0.3 mm
12:48 AM 51.1°F10.6°C 50.2°F10.1°C 97% 0.9 mph NE1.4 kmh NE 2.0 mph3.2 kmh 30.04 in1017.3 mb 0.02 in0.5 mm 0.00 in0.0 mm 0.01 in0.3 mm
12:47 AM 51.1°F10.6°C 50.2°F10.1°C 97% 1.1 mph 1.8 kmh 2.0 mph3.2 kmh 30.04 in1017.3 mb 0.02 in0.5 mm 0.00 in0.0 mm 0.01 in0.3 mm
12:46 AM 51.1°F10.6°C 50.2°F10.1°C 97% 1.3 mph 2.1 kmh 2.0 mph3.2 kmh 30.04 in1017.3 mb 0.02 in0.5 mm 0.00 in0.0 mm 0.01 in0.3 mm
12:45 AM 51.1°F10.6°C 50.2°F10.1°C 97% 1.1 mph 1.8 kmh 2.0 mph3.2 kmh 30.05 in1017.6 mb 0.02 in0.5 mm 0.00 in0.0 mm 0.01 in0.3 mm
12:44 AM 51.1°F10.6°C 50.2°F10.1°C 97% 0.4 mph 0.6 kmh 2.0 mph3.2 kmh 30.04 in1017.3 mb 0.02 in0.5 mm 0.00 in0.0 mm 0.01 in0.3 mm
12:43 AM 51.1°F10.6°C 50.2°F10.1°C 97% Calm Calm -- 30.04 in1017.3 mb 0.02 in0.5 mm 0.00 in0.0 mm 0.01 in0.3 mm
12:42 AM 51.1°F10.6°C 50.2°F10.1°C 97% 0.7 mph 1.1 kmh 1.1 mph1.8 kmh 30.05 in1017.6 mb 0.02 in0.5 mm 0.00 in0.0 mm 0.01 in0.3 mm
12:41 AM 51.1°F10.6°C 50.2°F10.1°C 97% 0.9 mph 1.4 kmh 2.0 mph3.2 kmh 30.04 in1017.3 mb 0.02 in0.5 mm 0.00 in0.0 mm 0.01 in0.3 mm
12:40 AM 51.1°F10.6°C 50.2°F10.1°C 97% 0.4 mph 0.6 kmh 1.1 mph1.8 kmh 30.04 in1017.3 mb 0.02 in0.5 mm 0.00 in0.0 mm 0.01 in0.3 mm
12:39 AM 51.1°F10.6°C 50.2°F10.1°C 97% 0.7 mph 1.1 kmh 1.1 mph1.8 kmh 30.04 in1017.3 mb 0.02 in0.5 mm 0.00 in0.0 mm 0.01 in0.3 mm
12:38 AM 51.1°F10.6°C 50.2°F10.1°C 97% 1.1 mph 1.8 kmh 2.0 mph3.2 kmh 30.04 in1017.3 mb 0.02 in0.5 mm 0.00 in0.0 mm 0.01 in0.3 mm
12:37 AM 51.1°F10.6°C 50.2°F10.1°C 97% 0.9 mph N1.4 kmh N 2.0 mph3.2 kmh 30.04 in1017.3 mb 0.02 in0.5 mm 0.00 in0.0 mm 0.01 in0.3 mm
12:36 AM 51.1°F10.6°C 50.2°F10.1°C 97% 0.7 mph NNW1.1 kmh NNW 2.0 mph3.2 kmh 30.03 in1016.9 mb 0.02 in0.5 mm 0.00 in0.0 mm 0.01 in0.3 mm
12:35 AM 51.1°F10.6°C 50.2°F10.1°C 97% 0.7 mph NNW1.1 kmh NNW 2.0 mph3.2 kmh 30.04 in1017.3 mb 0.02 in0.5 mm 0.00 in0.0 mm 0.01 in0.3 mm
12:34 AM 51.1°F10.6°C 50.2°F10.1°C 97% 0.4 mph NNW0.6 kmh NNW 1.1 mph1.8 kmh 30.03 in1016.9 mb 0.02 in0.5 mm 0.00 in0.0 mm 0.01 in0.3 mm
12:33 AM 51.1°F10.6°C 50.2°F10.1°C 97% 0.4 mph NNW0.6 kmh NNW 1.1 mph1.8 kmh 30.03 in1016.9 mb 0.02 in0.5 mm 0.00 in0.0 mm 0.01 in0.3 mm
12:32 AM 51.1°F10.6°C 50.2°F10.1°C 97% 0.4 mph NNW0.6 kmh NNW 1.1 mph1.8 kmh 30.03 in1016.9 mb 0.02 in0.5 mm 0.00 in0.0 mm 0.01 in0.3 mm
12:31 AM 51.1°F10.6°C 50.2°F10.1°C 97% 0.9 mph NW1.4 kmh NW 1.1 mph1.8 kmh 30.03 in1016.9 mb 0.02 in0.5 mm 0.00 in0.0 mm 0.01 in0.3 mm
12:30 AM 51.1°F10.6°C 50.2°F10.1°C 97% 1.6 mph NW2.6 kmh NW 2.0 mph3.2 kmh 30.03 in1016.9 mb 0.02 in0.5 mm 0.00 in0.0 mm 0.01 in0.3 mm
12:29 AM 51.1°F10.6°C 50.2°F10.1°C 97% 1.8 mph NW2.9 kmh NW 3.1 mph5.0 kmh 30.03 in1016.9 mb 0.02 in0.5 mm 0.00 in0.0 mm 0.01 in0.3 mm
12:28 AM 51.1°F10.6°C 50.2°F10.1°C 97% 1.6 mph NE2.6 kmh NE 3.1 mph5.0 kmh 30.03 in1016.9 mb 0.02 in0.5 mm 0.00 in0.0 mm 0.01 in0.3 mm
12:27 AM 51.1°F10.6°C 50.2°F10.1°C 97% 1.6 mph NE2.6 kmh NE 3.1 mph5.0 kmh 30.03 in1016.9 mb 0.02 in0.5 mm 0.00 in0.0 mm 0.01 in0.3 mm
12:26 AM 51.1°F10.6°C 50.2°F10.1°C 97% 1.1 mph NNE1.8 kmh NNE 2.0 mph3.2 kmh 30.04 in1017.3 mb 0.02 in0.5 mm 0.00 in0.0 mm 0.01 in0.3 mm
12:25 AM 51.1°F10.6°C 50.2°F10.1°C 97% 0.7 mph NNE1.1 kmh NNE 2.0 mph3.2 kmh 30.04 in1017.3 mb 0.02 in0.5 mm 0.60 in15.2 mm 0.01 in0.3 mm
12:24 AM 51.1°F10.6°C 50.2°F10.1°C 97% 1.3 mph NNE2.1 kmh NNE 2.0 mph3.2 kmh 30.04 in1017.3 mb 0.01 in0.3 mm 0.00 in0.0 mm 0.01 in0.3 mm
12:23 AM 51.3°F10.7°C 50.4°F10.2°C 97% 1.8 mph NNE2.9 kmh NNE 3.1 mph5.0 kmh 30.04 in1017.3 mb 0.01 in0.3 mm 0.00 in0.0 mm 0.02 in0.5 mm
12:22 AM 51.3°F10.7°C 50.4°F10.2°C 97% 1.1 mph NE1.8 kmh NE 2.0 mph3.2 kmh 30.04 in1017.3 mb 0.01 in0.3 mm 0.00 in0.0 mm 0.02 in0.5 mm
12:21 AM 51.3°F10.7°C 50.4°F10.2°C 97% 0.9 mph E1.4 kmh E 2.0 mph3.2 kmh 30.05 in1017.6 mb 0.01 in0.3 mm 0.00 in0.0 mm 0.02 in0.5 mm
12:20 AM 51.3°F10.7°C 50.4°F10.2°C 97% 0.9 mph E1.4 kmh E 1.1 mph1.8 kmh 30.04 in1017.3 mb 0.02 in0.5 mm 0.00 in0.0 mm 0.02 in0.5 mm
12:19 AM 51.3°F10.7°C 50.4°F10.2°C 97% 0.9 mph E1.4 kmh E 1.1 mph1.8 kmh 30.04 in1017.3 mb 0.02 in0.5 mm 0.00 in0.0 mm 0.02 in0.5 mm
12:18 AM 51.3°F10.7°C 50.4°F10.2°C 97% 0.9 mph E1.4 kmh E 1.1 mph1.8 kmh 30.05 in1017.6 mb 0.02 in0.5 mm 0.00 in0.0 mm 0.02 in0.5 mm
12:17 AM 51.3°F10.7°C 50.4°F10.2°C 97% 0.7 mph E1.1 kmh E 1.1 mph1.8 kmh 30.05 in1017.6 mb 0.02 in0.5 mm 0.00 in0.0 mm 0.02 in0.5 mm
12:16 AM 51.3°F10.7°C 50.4°F10.2°C 97% 0.4 mph E0.6 kmh E 1.1 mph1.8 kmh 30.05 in1017.6 mb 0.02 in0.5 mm 0.00 in0.0 mm 0.02 in0.5 mm
12:15 AM 51.3°F10.7°C 50.4°F10.2°C 97% 0.2 mph E0.3 kmh E 1.1 mph1.8 kmh 30.04 in1017.3 mb 0.02 in0.5 mm 0.00 in0.0 mm 0.02 in0.5 mm
12:14 AM 51.3°F10.7°C 50.4°F10.2°C 97% 0.4 mph E0.6 kmh E 1.1 mph1.8 kmh 30.04 in1017.3 mb 0.02 in0.5 mm 0.00 in0.0 mm 0.02 in0.5 mm
12:13 AM 51.3°F10.7°C 50.4°F10.2°C 97% 0.7 mph E1.1 kmh E 2.0 mph3.2 kmh 30.04 in1017.3 mb 0.02 in0.5 mm 0.00 in0.0 mm 0.02 in0.5 mm
12:12 AM 51.3°F10.7°C 50.4°F10.2°C 97% 0.9 mph E1.4 kmh E 2.0 mph3.2 kmh 30.05 in1017.6 mb 0.02 in0.5 mm 0.00 in0.0 mm 0.02 in0.5 mm
12:11 AM 51.3°F10.7°C 50.4°F10.2°C 97% 0.9 mph E1.4 kmh E 2.0 mph3.2 kmh 30.04 in1017.3 mb 0.02 in0.5 mm 0.00 in0.0 mm 0.02 in0.5 mm
12:10 AM 51.3°F10.7°C 50.4°F10.2°C 97% 0.4 mph NW0.6 kmh NW 2.0 mph3.2 kmh 30.05 in1017.6 mb 0.02 in0.5 mm 0.00 in0.0 mm 0.02 in0.5 mm
12:09 AM 51.3°F10.7°C 50.4°F10.2°C 97% 0.7 mph NW1.1 kmh NW 1.1 mph1.8 kmh 30.05 in1017.6 mb 0.02 in0.5 mm 0.00 in0.0 mm 0.02 in0.5 mm
12:08 AM 51.4°F10.8°C 50.5°F10.3°C 97% 0.9 mph NW1.4 kmh NW 2.0 mph3.2 kmh 30.05 in1017.6 mb 0.02 in0.5 mm 0.00 in0.0 mm 0.02 in0.5 mm
12:07 AM 51.4°F10.8°C 50.5°F10.3°C 97% 1.1 mph NW1.8 kmh NW 2.0 mph3.2 kmh 30.04 in1017.3 mb 0.02 in0.5 mm 0.00 in0.0 mm 0.02 in0.5 mm
12:06 AM 51.4°F10.8°C 50.5°F10.3°C 97% 1.3 mph NW2.1 kmh NW 3.1 mph5.0 kmh 30.04 in1017.3 mb 0.02 in0.5 mm 0.00 in0.0 mm 0.02 in0.5 mm
12:05 AM 51.4°F10.8°C 50.5°F10.3°C 97% 1.1 mph NE1.8 kmh NE 2.0 mph3.2 kmh 30.05 in1017.6 mb 0.02 in0.5 mm 0.00 in0.0 mm 0.02 in0.5 mm
12:04 AM 51.4°F10.8°C 50.5°F10.3°C 97% 0.9 mph NE1.4 kmh NE 2.0 mph3.2 kmh 30.05 in1017.6 mb 0.02 in0.5 mm 0.00 in0.0 mm 0.02 in0.5 mm
12:03 AM 51.4°F10.8°C 50.5°F10.3°C 97% 0.4 mph NE0.6 kmh NE 2.0 mph3.2 kmh 30.05 in1017.6 mb 0.02 in0.5 mm 0.00 in0.0 mm 0.02 in0.5 mm
12:02 AM 51.4°F10.8°C 50.5°F10.3°C 97% Calm Calm -- 30.04 in1017.3 mb 0.02 in0.5 mm 0.00 in0.0 mm 0.02 in0.5 mm
12:01 AM 51.4°F10.8°C 50.5°F10.3°C 97% Calm Calm -- 30.04 in1017.3 mb 0.02 in0.5 mm 0.00 in0.0 mm 0.02 in0.5 mm
12:00 AM 51.4°F10.8°C 50.5°F10.3°C 97% 0.2 mph N0.3 kmh N 1.1 mph1.8 kmh 30.04 in1017.3 mb 0.02 in0.5 mm 0.00 in0.0 mm 0.02 in0.5 mm